sensor_id;sensor_type;location;lat;lon;timestamp;pressure;altitude;pressure_sealevel;temperature;humidity
83122;BME280;73002;47.238;9.006;2023-10-09T07:53:44;95745.72;;;32.03;27.89
83122;BME280;73002;47.238;9.006;2023-10-09T07:56:13;95745.22;;;31.87;27.62
83122;BME280;73002;47.238;9.006;2023-10-09T07:58:46;95747.84;;;31.65;27.83
83122;BME280;73002;47.238;9.006;2023-10-09T08:01:13;95738.81;;;31.28;28.72
83122;BME280;73002;47.238;9.006;2023-10-09T08:34:52;95730.13;;;33.58;27.34
83122;BME280;73002;47.238;9.006;2023-10-09T08:37:20;95732.22;;;33.61;29.06
83122;BME280;73002;47.238;9.006;2023-10-09T08:39:50;95739.31;;;34.06;27.02
83122;BME280;73002;47.238;9.006;2023-10-09T08:42:15;95740.53;;;33.42;26.63
83122;BME280;73002;47.238;9.006;2023-10-09T08:44:41;95747.06;;;32.87;29.31
83122;BME280;73002;47.238;9.006;2023-10-09T14:18:47;95579.63;;;27.68;40.33
83122;BME280;73002;47.238;9.006;2023-10-09T14:21:12;95574.91;;;27.55;41.40
83122;BME280;73002;47.238;9.006;2023-10-09T14:23:41;95583.97;;;27.54;42.78
83122;BME280;73002;47.238;9.006;2023-10-09T14:26:09;95572.84;;;27.37;41.85
83122;BME280;73002;47.238;9.006;2023-10-09T14:28:38;95565.78;;;27.56;38.10
83122;BME280;73002;47.238;9.006;2023-10-09T14:44:16;95550.56;;;27.02;42.35
83122;BME280;73002;47.238;9.006;2023-10-09T15:05:27;95528.78;;;26.69;42.39
83122;BME280;73002;47.238;9.006;2023-10-09T15:07:52;95530.69;;;26.63;43.08
83122;BME280;73002;47.238;9.006;2023-10-09T15:10:19;95543.19;;;26.58;43.46
83122;BME280;73002;47.238;9.006;2023-10-09T15:12:45;95545.91;;;26.47;42.89
83122;BME280;73002;47.238;9.006;2023-10-09T15:15:12;95541.63;;;26.46;41.78
83122;BME280;73002;47.238;9.006;2023-10-09T15:51:17;95509.69;;;25.69;38.59
83122;BME280;73002;47.238;9.006;2023-10-09T15:53:43;95515.31;;;25.63;38.07
83122;BME280;73002;47.238;9.006;2023-10-09T16:14:15;95520.88;;;25.46;38.52
83122;BME280;73002;47.238;9.006;2023-10-09T16:16:41;95542.19;;;25.46;39.45
83122;BME280;73002;47.238;9.006;2023-10-09T16:37:13;95529.22;;;24.91;39.44
83122;BME280;73002;47.238;9.006;2023-10-09T16:39:40;95537.28;;;25.12;39.15
83122;BME280;73002;47.238;9.006;2023-10-09T16:45:09;95531.78;;;24.71;39.04
83122;BME280;73002;47.238;9.006;2023-10-09T17:05:31;95542.09;;;24.57;39.94
83122;BME280;73002;47.238;9.006;2023-10-09T17:08:05;95539.72;;;24.61;39.16
83122;BME280;73002;47.238;9.006;2023-10-09T17:10:35;95540.41;;;24.46;39.85
83122;BME280;73002;47.238;9.006;2023-10-09T17:23:12;95545.16;;;24.01;40.40
83122;BME280;73002;47.238;9.006;2023-10-09T17:25:38;95546.25;;;24.05;39.80
83122;BME280;73002;47.238;9.006;2023-10-09T17:28:13;95550.13;;;23.92;40.42
83122;BME280;73002;47.238;9.006;2023-10-09T17:30:47;95549.28;;;23.87;39.81
83122;BME280;73002;47.238;9.006;2023-10-09T17:33:16;95540.06;;;23.67;40.26
83122;BME280;73002;47.238;9.006;2023-10-09T17:35:47;95549.34;;;23.92;40.38
83122;BME280;73002;47.238;9.006;2023-10-09T17:38:12;95549.13;;;23.71;40.73
83122;BME280;73002;47.238;9.006;2023-10-09T17:40:44;95548.00;;;23.62;41.12
83122;BME280;73002;47.238;9.006;2023-10-09T17:43:10;95530.13;;;23.25;40.81
83122;BME280;73002;47.238;9.006;2023-10-09T17:45:38;95540.50;;;23.54;40.17
83122;BME280;73002;47.238;9.006;2023-10-09T17:48:06;95540.28;;;23.60;39.33
83122;BME280;73002;47.238;9.006;2023-10-09T17:50:41;95554.78;;;23.48;40.48
83122;BME280;73002;47.238;9.006;2023-10-09T17:53:08;95553.06;;;23.36;40.81
83122;BME280;73002;47.238;9.006;2023-10-09T17:55:34;95557.69;;;23.24;41.54
83122;BME280;73002;47.238;9.006;2023-10-09T17:58:02;95558.88;;;23.11;41.41
83122;BME280;73002;47.238;9.006;2023-10-09T18:00:42;95563.75;;;22.97;41.63
83122;BME280;73002;47.238;9.006;2023-10-09T18:03:12;95563.81;;;23.02;41.35
83122;BME280;73002;47.238;9.006;2023-10-09T18:05:41;95560.53;;;22.95;41.28
83122;BME280;73002;47.238;9.006;2023-10-09T18:08:12;95545.78;;;22.82;41.59
83122;BME280;73002;47.238;9.006;2023-10-09T18:21:34;95560.47;;;22.68;41.43
83122;BME280;73002;47.238;9.006;2023-10-09T19:09:11;95540.28;;;22.11;42.31
83122;BME280;73002;47.238;9.006;2023-10-09T19:25:22;95539.31;;;21.83;42.66
83122;BME280;73002;47.238;9.006;2023-10-09T19:27:52;95540.38;;;21.82;42.95
83122;BME280;73002;47.238;9.006;2023-10-09T19:37:48;95548.25;;;22.11;42.35
83122;BME280;73002;47.238;9.006;2023-10-09T19:40:15;95548.81;;;22.13;42.30
83122;BME280;73002;47.238;9.006;2023-10-09T19:42:41;95543.91;;;22.05;42.50
83122;BME280;73002;47.238;9.006;2023-10-09T19:45:10;95546.06;;;22.08;42.91
83122;BME280;73002;47.238;9.006;2023-10-09T19:47:57;95530.81;;;21.81;42.88
83122;BME280;73002;47.238;9.006;2023-10-09T19:50:22;95545.13;;;21.97;42.47
83122;BME280;73002;47.238;9.006;2023-10-09T21:18:16;95591.97;;;22.14;41.86
83122;BME280;73002;47.238;9.006;2023-10-09T21:20:42;95594.88;;;22.46;40.74
83122;BME280;73002;47.238;9.006;2023-10-09T21:23:09;95597.84;;;22.50;40.90
83122;BME280;73002;47.238;9.006;2023-10-09T21:25:38;95592.22;;;22.46;40.68
83122;BME280;73002;47.238;9.006;2023-10-09T21:28:03;95605.88;;;22.55;40.58
